sensor_id;sensor_type;location;lat;lon;timestamp;temperature;humidity
63313;DHT22;49442;45.640;13.812;2023-12-28T00:00:51;9.60;99.90
63313;DHT22;49442;45.640;13.812;2023-12-28T00:03:17;9.60;99.90
63313;DHT22;49442;45.640;13.812;2023-12-28T00:05:42;9.60;99.90
63313;DHT22;49442;45.640;13.812;2023-12-28T00:08:08;9.70;99.90
63313;DHT22;49442;45.640;13.812;2023-12-28T00:10:34;9.60;99.90
63313;DHT22;49442;45.640;13.812;2023-12-28T00:13:02;9.60;99.90
63313;DHT22;49442;45.640;13.812;2023-12-28T00:15:28;9.60;99.90
63313;DHT22;49442;45.640;13.812;2023-12-28T00:17:53;9.60;99.90
63313;DHT22;49442;45.640;13.812;2023-12-28T00:20:19;9.60;99.90
63313;DHT22;49442;45.640;13.812;2023-12-28T00:22:45;9.60;99.90
63313;DHT22;49442;45.640;13.812;2023-12-28T00:25:10;9.60;99.90
63313;DHT22;49442;45.640;13.812;2023-12-28T00:27:36;9.60;99.90
63313;DHT22;49442;45.640;13.812;2023-12-28T00:30:05;9.60;99.90
63313;DHT22;49442;45.640;13.812;2023-12-28T00:32:30;9.60;99.90
63313;DHT22;49442;45.640;13.812;2023-12-28T00:34:56;9.60;99.90
63313;DHT22;49442;45.640;13.812;2023-12-28T00:37:22;9.60;99.90
63313;DHT22;49442;45.640;13.812;2023-12-28T00:39:47;9.60;99.90
63313;DHT22;49442;45.640;13.812;2023-12-28T00:42:17;9.60;99.90
63313;DHT22;49442;45.640;13.812;2023-12-28T00:44:43;9.60;99.90
63313;DHT22;49442;45.640;13.812;2023-12-28T00:47:09;9.60;99.90
63313;DHT22;49442;45.640;13.812;2023-12-28T00:49:34;9.60;99.90
63313;DHT22;49442;45.640;13.812;2023-12-28T00:52:00;9.60;99.90
63313;DHT22;49442;45.640;13.812;2023-12-28T00:54:26;9.70;99.90
63313;DHT22;49442;45.640;13.812;2023-12-28T00:56:51;9.60;99.90
63313;DHT22;49442;45.640;13.812;2023-12-28T00:59:17;9.70;99.90
63313;DHT22;49442;45.640;13.812;2023-12-28T01:01:43;9.70;99.90
63313;DHT22;49442;45.640;13.812;2023-12-28T01:04:09;9.70;99.90
63313;DHT22;49442;45.640;13.812;2023-12-28T01:06:35;9.70;99.90
63313;DHT22;49442;45.640;13.812;2023-12-28T01:09:00;9.70;99.90
63313;DHT22;49442;45.640;13.812;2023-12-28T01:11:26;9.60;99.90
63313;DHT22;49442;45.640;13.812;2023-12-28T01:13:53;9.60;99.90
63313;DHT22;49442;45.640;13.812;2023-12-28T01:16:18;9.70;99.90
63313;DHT22;49442;45.640;13.812;2023-12-28T01:18:44;9.60;99.90
63313;DHT22;49442;45.640;13.812;2023-12-28T01:21:10;9.60;99.90
63313;DHT22;49442;45.640;13.812;2023-12-28T01:23:35;9.70;99.90
63313;DHT22;49442;45.640;13.812;2023-12-28T01:26:01;9.60;99.90
63313;DHT22;49442;45.640;13.812;2023-12-28T01:28:27;9.60;99.90
63313;DHT22;49442;45.640;13.812;2023-12-28T01:30:53;9.60;99.90
63313;DHT22;49442;45.640;13.812;2023-12-28T01:33:19;9.60;99.90
63313;DHT22;49442;45.640;13.812;2023-12-28T01:35:45;9.70;99.90
63313;DHT22;49442;45.640;13.812;2023-12-28T01:38:10;9.60;99.90
63313;DHT22;49442;45.640;13.812;2023-12-28T01:40:36;9.60;99.90
63313;DHT22;49442;45.640;13.812;2023-12-28T01:43:02;9.70;99.90
63313;DHT22;49442;45.640;13.812;2023-12-28T01:45:27;9.70;99.90
63313;DHT22;49442;45.640;13.812;2023-12-28T01:47:53;9.70;99.90
63313;DHT22;49442;45.640;13.812;2023-12-28T01:50:21;9.70;99.90
63313;DHT22;49442;45.640;13.812;2023-12-28T01:52:49;9.60;99.90
63313;DHT22;49442;45.640;13.812;2023-12-28T01:55:16;9.70;99.90
63313;DHT22;49442;45.640;13.812;2023-12-28T01:57:42;9.70;99.90
63313;DHT22;49442;45.640;13.812;2023-12-28T02:00:08;9.70;99.90
63313;DHT22;49442;45.640;13.812;2023-12-28T02:02:34;9.70;99.90
63313;DHT22;49442;45.640;13.812;2023-12-28T02:05:01;9.70;99.90
63313;DHT22;49442;45.640;13.812;2023-12-28T02:07:27;9.70;99.90
63313;DHT22;49442;45.640;13.812;2023-12-28T02:09:53;9.80;99.90
63313;DHT22;49442;45.640;13.812;2023-12-28T02:12:19;9.80;99.90
63313;DHT22;49442;45.640;13.812;2023-12-28T02:14:45;9.80;99.90
63313;DHT22;49442;45.640;13.812;2023-12-28T02:17:33;9.80;99.90
63313;DHT22;49442;45.640;13.812;2023-12-28T02:20:00;9.80;99.90
63313;DHT22;49442;45.640;13.812;2023-12-28T02:22:31;9.90;99.90
63313;DHT22;49442;45.640;13.812;2023-12-28T02:27:40;9.90;99.90
63313;DHT22;49442;45.640;13.812;2023-12-28T02:30:07;9.80;99.90
63313;DHT22;49442;45.640;13.812;2023-12-28T02:37:49;9.80;99.90
63313;DHT22;49442;45.640;13.812;2023-12-28T02:40:17;9.70;99.90
63313;DHT22;49442;45.640;13.812;2023-12-28T02:42:43;9.80;99.90
63313;DHT22;49442;45.640;13.812;2023-12-28T02:45:09;9.70;99.90
63313;DHT22;49442;45.640;13.812;2023-12-28T02:47:35;9.70;99.90
63313;DHT22;49442;45.640;13.812;2023-12-28T02:50:00;9.70;99.90
63313;DHT22;49442;45.640;13.812;2023-12-28T02:52:26;9.70;99.90
63313;DHT22;49442;45.640;13.812;2023-12-28T02:54:52;9.70;99.90
63313;DHT22;49442;45.640;13.812;2023-12-28T02:57:17;9.80;99.90
63313;DHT22;49442;45.640;13.812;2023-12-28T02:59:47;9.80;99.90
63313;DHT22;49442;45.640;13.812;2023-12-28T03:02:12;9.80;99.90
63313;DHT22;49442;45.640;13.812;2023-12-28T03:04:38;9.80;99.90
63313;DHT22;49442;45.640;13.812;2023-12-28T03:07:05;9.80;99.90
63313;DHT22;49442;45.640;13.812;2023-12-28T03:09:30;9.80;99.90
63313;DHT22;49442;45.640;13.812;2023-12-28T03:11:56;9.80;99.90
63313;DHT22;49442;45.640;13.812;2023-12-28T03:14:22;9.80;99.90
63313;DHT22;49442;45.640;13.812;2023-12-28T03:16:47;9.80;99.90
63313;DHT22;49442;45.640;13.812;2023-12-28T03:19:13;9.80;99.90
63313;DHT22;49442;45.640;13.812;2023-12-28T03:21:40;9.80;99.90
63313;DHT22;49442;45.640;13.812;2023-12-28T03:24:06;9.80;99.90
63313;DHT22;49442;45.640;13.812;2023-12-28T03:26:31;9.80;99.90
63313;DHT22;49442;45.640;13.812;2023-12-28T03:28:57;9.80;99.90
63313;DHT22;49442;45.640;13.812;2023-12-28T03:31:23;9.80;99.90
63313;DHT22;49442;45.640;13.812;2023-12-28T03:33:48;9.80;99.90
63313;DHT22;49442;45.640;13.812;2023-12-28T03:36:18;9.90;99.90
63313;DHT22;49442;45.640;13.812;2023-12-28T03:38:45;9.90;99.90
63313;DHT22;49442;45.640;13.812;2023-12-28T03:41:20;9.90;99.90
63313;DHT22;49442;45.640;13.812;2023-12-28T03:43:46;9.80;99.90
63313;DHT22;49442;45.640;13.812;2023-12-28T03:46:12;9.80;99.90
63313;DHT22;49442;45.640;13.812;2023-12-28T03:48:38;9.80;99.90
63313;DHT22;49442;45.640;13.812;2023-12-28T03:51:04;9.90;99.90
63313;DHT22;49442;45.640;13.812;2023-12-28T03:53:30;9.80;99.90
63313;DHT22;49442;45.640;13.812;2023-12-28T03:55:59;9.80;99.90
63313;DHT22;49442;45.640;13.812;2023-12-28T03:58:25;9.80;99.90
63313;DHT22;49442;45.640;13.812;2023-12-28T04:00:52;9.80;99.90
63313;DHT22;49442;45.640;13.812;2023-12-28T04:03:18;9.70;99.90
63313;DHT22;49442;45.640;13.812;2023-12-28T04:05:43;9.70;99.90
63313;DHT22;49442;45.640;13.812;2023-12-28T04:08:09;9.70;99.90
63313;DHT22;49442;45.640;13.812;2023-12-28T04:10:35;9.70;99.90
63313;DHT22;49442;45.640;13.812;2023-12-28T04:13:04;9.70;99.90
63313;DHT22;49442;45.640;13.812;2023-12-28T04:15:30;9.70;99.90
63313;DHT22;49442;45.640;13.812;2023-12-28T04:17:56;9.70;99.90
63313;DHT22;49442;45.640;13.812;2023-12-28T04:20:22;9.70;99.90
63313;DHT22;49442;45.640;13.812;2023-12-28T04:22:48;9.70;99.90
63313;DHT22;49442;45.640;13.812;2023-12-28T04:25:13;9.60;99.90
63313;DHT22;49442;45.640;13.812;2023-12-28T04:27:41;9.60;99.90
63313;DHT22;49442;45.640;13.812;2023-12-28T04:30:11;9.60;99.90
63313;DHT22;49442;45.640;13.812;2023-12-28T04:32:37;9.60;99.90
63313;DHT22;49442;45.640;13.812;2023-12-28T04:35:03;9.60;99.90
63313;DHT22;49442;45.640;13.812;2023-12-28T04:40:13;9.60;99.90
63313;DHT22;49442;45.640;13.812;2023-12-28T04:42:43;9.60;99.90
63313;DHT22;49442;45.640;13.812;2023-12-28T04:45:09;9.60;99.90
63313;DHT22;49442;45.640;13.812;2023-12-28T04:47:36;9.60;99.90
63313;DHT22;49442;45.640;13.812;2023-12-28T04:50:02;9.50;99.90
63313;DHT22;49442;45.640;13.812;2023-12-28T04:52:28;9.60;99.90
63313;DHT22;49442;45.640;13.812;2023-12-28T04:54:54;9.60;99.90
63313;DHT22;49442;45.640;13.812;2023-12-28T04:57:20;9.50;99.90
63313;DHT22;49442;45.640;13.812;2023-12-28T04:59:46;9.50;99.90
63313;DHT22;49442;45.640;13.812;2023-12-28T05:02:12;9.50;99.90
63313;DHT22;49442;45.640;13.812;2023-12-28T05:04:37;9.50;99.90
63313;DHT22;49442;45.640;13.812;2023-12-28T05:07:06;9.50;99.90
63313;DHT22;49442;45.640;13.812;2023-12-28T05:09:32;9.50;99.90
63313;DHT22;49442;45.640;13.812;2023-12-28T05:11:57;9.50;99.90
63313;DHT22;49442;45.640;13.812;2023-12-28T05:14:23;9.50;99.90
63313;DHT22;49442;45.640;13.812;2023-12-28T05:16:49;9.50;99.90
63313;DHT22;49442;45.640;13.812;2023-12-28T05:19:15;9.50;99.90
63313;DHT22;49442;45.640;13.812;2023-12-28T05:21:40;9.50;99.90
63313;DHT22;49442;45.640;13.812;2023-12-28T05:24:06;9.50;99.90
63313;DHT22;49442;45.640;13.812;2023-12-28T05:26:32;9.50;99.90
63313;DHT22;49442;45.640;13.812;2023-12-28T05:28:58;9.50;99.90
63313;DHT22;49442;45.640;13.812;2023-12-28T05:31:24;9.50;99.90
63313;DHT22;49442;45.640;13.812;2023-12-28T05:33:50;9.50;99.90
63313;DHT22;49442;45.640;13.812;2023-12-28T05:36:15;9.50;99.90
63313;DHT22;49442;45.640;13.812;2023-12-28T05:38:41;9.50;99.90
63313;DHT22;49442;45.640;13.812;2023-12-28T05:41:09;9.50;99.90
63313;DHT22;49442;45.640;13.812;2023-12-28T05:43:35;9.50;99.90
63313;DHT22;49442;45.640;13.812;2023-12-28T05:46:00;9.50;99.90
63313;DHT22;49442;45.640;13.812;2023-12-28T05:48:26;9.50;99.90
63313;DHT22;49442;45.640;13.812;2023-12-28T05:50:52;9.50;99.90
63313;DHT22;49442;45.640;13.812;2023-12-28T05:53:17;9.50;99.90
63313;DHT22;49442;45.640;13.812;2023-12-28T05:55:43;9.50;99.90
63313;DHT22;49442;45.640;13.812;2023-12-28T05:58:09;9.50;99.90
63313;DHT22;49442;45.640;13.812;2023-12-28T06:00:35;9.50;99.90
63313;DHT22;49442;45.640;13.812;2023-12-28T06:03:05;9.50;99.90
63313;DHT22;49442;45.640;13.812;2023-12-28T06:05:31;9.50;99.90
63313;DHT22;49442;45.640;13.812;2023-12-28T06:07:57;9.50;99.90
63313;DHT22;49442;45.640;13.812;2023-12-28T06:10:22;9.50;99.90
63313;DHT22;49442;45.640;13.812;2023-12-28T06:12:49;9.50;99.90
63313;DHT22;49442;45.640;13.812;2023-12-28T06:15:15;9.50;99.90
63313;DHT22;49442;45.640;13.812;2023-12-28T06:17:41;9.50;99.90
63313;DHT22;49442;45.640;13.812;2023-12-28T06:20:07;9.50;99.90
63313;DHT22;49442;45.640;13.812;2023-12-28T06:22:36;9.50;99.90
63313;DHT22;49442;45.640;13.812;2023-12-28T06:25:02;9.50;99.90
63313;DHT22;49442;45.640;13.812;2023-12-28T06:27:29;9.50;99.90
63313;DHT22;49442;45.640;13.812;2023-12-28T06:29:54;9.60;99.90
63313;DHT22;49442;45.640;13.812;2023-12-28T06:32:20;9.60;99.90
63313;DHT22;49442;45.640;13.812;2023-12-28T06:34:46;9.60;99.90
63313;DHT22;49442;45.640;13.812;2023-12-28T06:37:12;9.60;99.90
63313;DHT22;49442;45.640;13.812;2023-12-28T06:39:38;9.50;99.90
63313;DHT22;49442;45.640;13.812;2023-12-28T06:42:04;9.50;99.90
63313;DHT22;49442;45.640;13.812;2023-12-28T06:44:30;9.60;99.90
63313;DHT22;49442;45.640;13.812;2023-12-28T06:46:56;9.50;99.90
63313;DHT22;49442;45.640;13.812;2023-12-28T06:49:21;9.60;99.90
63313;DHT22;49442;45.640;13.812;2023-12-28T06:51:47;9.60;99.90
63313;DHT22;49442;45.640;13.812;2023-12-28T06:54:16;9.60;99.90
63313;DHT22;49442;45.640;13.812;2023-12-28T06:56:42;9.60;99.90
63313;DHT22;49442;45.640;13.812;2023-12-28T06:59:08;9.60;99.90
63313;DHT22;49442;45.640;13.812;2023-12-28T07:01:40;9.60;99.90
63313;DHT22;49442;45.640;13.812;2023-12-28T07:04:06;9.60;99.90
63313;DHT22;49442;45.640;13.812;2023-12-28T07:06:32;9.70;99.90
63313;DHT22;49442;45.640;13.812;2023-12-28T07:08:58;9.70;99.90
63313;DHT22;49442;45.640;13.812;2023-12-28T07:11:23;9.70;99.90
63313;DHT22;49442;45.640;13.812;2023-12-28T07:13:49;9.70;99.90
63313;DHT22;49442;45.640;13.812;2023-12-28T07:16:15;9.70;99.90
63313;DHT22;49442;45.640;13.812;2023-12-28T07:18:41;9.70;99.90
63313;DHT22;49442;45.640;13.812;2023-12-28T07:21:07;9.70;99.90
63313;DHT22;49442;45.640;13.812;2023-12-28T07:23:36;9.70;99.90
63313;DHT22;49442;45.640;13.812;2023-12-28T07:26:03;9.70;99.90
63313;DHT22;49442;45.640;13.812;2023-12-28T07:28:29;9.70;99.90
63313;DHT22;49442;45.640;13.812;2023-12-28T07:30:54;9.80;99.90
63313;DHT22;49442;45.640;13.812;2023-12-28T07:33:20;9.80;99.90
63313;DHT22;49442;45.640;13.812;2023-12-28T07:35:47;9.80;99.90
63313;DHT22;49442;45.640;13.812;2023-12-28T07:38:13;9.80;99.90
63313;DHT22;49442;45.640;13.812;2023-12-28T07:40:38;9.80;99.90
63313;DHT22;49442;45.640;13.812;2023-12-28T07:43:04;9.90;99.90
63313;DHT22;49442;45.640;13.812;2023-12-28T07:45:30;9.90;99.90
63313;DHT22;49442;45.640;13.812;2023-12-28T07:47:58;9.90;99.90
63313;DHT22;49442;45.640;13.812;2023-12-28T07:50:24;9.80;99.90
63313;DHT22;49442;45.640;13.812;2023-12-28T07:52:49;9.90;99.90
63313;DHT22;49442;45.640;13.812;2023-12-28T07:55:15;9.90;99.90
63313;DHT22;49442;45.640;13.812;2023-12-28T07:57:41;9.80;99.90
63313;DHT22;49442;45.640;13.812;2023-12-28T08:00:07;9.90;99.90
63313;DHT22;49442;45.640;13.812;2023-12-28T08:02:33;9.90;99.90
63313;DHT22;49442;45.640;13.812;2023-12-28T08:04:59;9.90;99.90
63313;DHT22;49442;45.640;13.812;2023-12-28T08:07:25;9.90;99.90
63313;DHT22;49442;45.640;13.812;2023-12-28T08:09:51;9.90;99.90
63313;DHT22;49442;45.640;13.812;2023-12-28T08:12:16;9.90;99.90
63313;DHT22;49442;45.640;13.812;2023-12-28T08:14:43;9.90;99.90
63313;DHT22;49442;45.640;13.812;2023-12-28T08:17:09;9.90;99.90
63313;DHT22;49442;45.640;13.812;2023-12-28T08:19:34;10.00;99.90
63313;DHT22;49442;45.640;13.812;2023-12-28T08:22:01;10.00;99.90
63313;DHT22;49442;45.640;13.812;2023-12-28T08:24:26;10.00;99.90
63313;DHT22;49442;45.640;13.812;2023-12-28T08:26:52;10.00;99.90
63313;DHT22;49442;45.640;13.812;2023-12-28T08:29:18;10.00;99.90
63313;DHT22;49442;45.640;13.812;2023-12-28T08:31:44;10.00;99.90
63313;DHT22;49442;45.640;13.812;2023-12-28T08:34:10;10.00;99.90
63313;DHT22;49442;45.640;13.812;2023-12-28T08:36:35;10.00;99.90
63313;DHT22;49442;45.640;13.812;2023-12-28T08:39:01;10.00;99.90
63313;DHT22;49442;45.640;13.812;2023-12-28T08:41:27;10.00;99.90
63313;DHT22;49442;45.640;13.812;2023-12-28T08:43:53;10.10;99.90
63313;DHT22;49442;45.640;13.812;2023-12-28T08:46:22;10.10;99.90
63313;DHT22;49442;45.640;13.812;2023-12-28T08:48:50;10.10;99.90
63313;DHT22;49442;45.640;13.812;2023-12-28T08:51:16;10.00;99.90
63313;DHT22;49442;45.640;13.812;2023-12-28T08:53:41;10.10;99.90
63313;DHT22;49442;45.640;13.812;2023-12-28T08:56:17;10.10;99.90
63313;DHT22;49442;45.640;13.812;2023-12-28T08:58:46;10.10;99.90
63313;DHT22;49442;45.640;13.812;2023-12-28T09:01:23;10.10;99.90
63313;DHT22;49442;45.640;13.812;2023-12-28T09:03:49;10.10;99.90
63313;DHT22;49442;45.640;13.812;2023-12-28T09:06:16;10.20;99.90
63313;DHT22;49442;45.640;13.812;2023-12-28T09:08:42;10.20;99.90
63313;DHT22;49442;45.640;13.812;2023-12-28T09:11:11;10.20;99.90
63313;DHT22;49442;45.640;13.812;2023-12-28T09:13:38;10.20;99.90
63313;DHT22;49442;45.640;13.812;2023-12-28T09:16:05;10.10;99.90
63313;DHT22;49442;45.640;13.812;2023-12-28T09:18:30;10.20;99.90
63313;DHT22;49442;45.640;13.812;2023-12-28T09:20:56;10.20;99.90
63313;DHT22;49442;45.640;13.812;2023-12-28T09:23:22;10.20;99.90
63313;DHT22;49442;45.640;13.812;2023-12-28T09:25:47;10.20;99.90
63313;DHT22;49442;45.640;13.812;2023-12-28T09:28:14;10.20;99.90
63313;DHT22;49442;45.640;13.812;2023-12-28T09:30:40;10.20;99.90
63313;DHT22;49442;45.640;13.812;2023-12-28T09:33:06;10.20;99.90
63313;DHT22;49442;45.640;13.812;2023-12-28T09:35:31;10.20;99.90
63313;DHT22;49442;45.640;13.812;2023-12-28T09:37:57;10.20;99.90
63313;DHT22;49442;45.640;13.812;2023-12-28T09:40:24;10.20;99.90
63313;DHT22;49442;45.640;13.812;2023-12-28T09:46:07;10.30;99.90
63313;DHT22;49442;45.640;13.812;2023-12-28T09:48:33;10.30;99.90
63313;DHT22;49442;45.640;13.812;2023-12-28T09:51:00;10.30;99.90
63313;DHT22;49442;45.640;13.812;2023-12-28T09:53:26;10.30;99.90
63313;DHT22;49442;45.640;13.812;2023-12-28T09:55:52;10.40;99.90
63313;DHT22;49442;45.640;13.812;2023-12-28T09:58:19;10.40;99.90
63313;DHT22;49442;45.640;13.812;2023-12-28T10:00:46;10.40;99.90
63313;DHT22;49442;45.640;13.812;2023-12-28T10:03:13;10.40;99.90
63313;DHT22;49442;45.640;13.812;2023-12-28T10:05:43;10.50;99.90
63313;DHT22;49442;45.640;13.812;2023-12-28T10:08:11;10.50;99.90
63313;DHT22;49442;45.640;13.812;2023-12-28T10:10:39;10.50;99.90
63313;DHT22;49442;45.640;13.812;2023-12-28T10:13:10;10.50;99.90
63313;DHT22;49442;45.640;13.812;2023-12-28T10:15:36;10.50;99.90
63313;DHT22;49442;45.640;13.812;2023-12-28T10:18:04;10.50;99.90
63313;DHT22;49442;45.640;13.812;2023-12-28T10:20:31;10.60;99.90
63313;DHT22;49442;45.640;13.812;2023-12-28T10:23:01;10.60;99.90
63313;DHT22;49442;45.640;13.812;2023-12-28T10:25:27;10.60;99.90
63313;DHT22;49442;45.640;13.812;2023-12-28T10:27:53;10.70;99.90
63313;DHT22;49442;45.640;13.812;2023-12-28T10:30:23;10.60;99.90
63313;DHT22;49442;45.640;13.812;2023-12-28T10:32:48;10.60;99.90
63313;DHT22;49442;45.640;13.812;2023-12-28T10:35:14;10.70;99.90
63313;DHT22;49442;45.640;13.812;2023-12-28T10:37:41;10.70;99.90
63313;DHT22;49442;45.640;13.812;2023-12-28T10:40:09;10.70;99.90
63313;DHT22;49442;45.640;13.812;2023-12-28T10:42:58;10.80;99.90
63313;DHT22;49442;45.640;13.812;2023-12-28T10:45:29;10.80;99.90
63313;DHT22;49442;45.640;13.812;2023-12-28T10:48:06;10.80;99.90
63313;DHT22;49442;45.640;13.812;2023-12-28T10:50:41;10.90;99.90
63313;DHT22;49442;45.640;13.812;2023-12-28T10:56:17;10.90;99.90
63313;DHT22;49442;45.640;13.812;2023-12-28T10:58:49;10.90;99.90
63313;DHT22;49442;45.640;13.812;2023-12-28T11:01:37;11.00;99.90
63313;DHT22;49442;45.640;13.812;2023-12-28T11:06:48;11.00;99.90
63313;DHT22;49442;45.640;13.812;2023-12-28T11:09:15;11.00;99.90
63313;DHT22;49442;45.640;13.812;2023-12-28T11:11:43;11.00;99.90
63313;DHT22;49442;45.640;13.812;2023-12-28T11:14:09;11.00;99.90
63313;DHT22;49442;45.640;13.812;2023-12-28T11:16:37;11.10;99.90
63313;DHT22;49442;45.640;13.812;2023-12-28T11:19:04;11.10;99.90
63313;DHT22;49442;45.640;13.812;2023-12-28T11:21:31;11.10;99.90
63313;DHT22;49442;45.640;13.812;2023-12-28T11:23:59;11.10;99.90
63313;DHT22;49442;45.640;13.812;2023-12-28T11:26:26;11.10;99.90
63313;DHT22;49442;45.640;13.812;2023-12-28T11:29:03;11.10;99.90
63313;DHT22;49442;45.640;13.812;2023-12-28T11:31:33;11.10;99.90
63313;DHT22;49442;45.640;13.812;2023-12-28T11:34:00;11.10;99.90
63313;DHT22;49442;45.640;13.812;2023-12-28T11:36:34;11.10;99.90
63313;DHT22;49442;45.640;13.812;2023-12-28T11:39:06;11.10;99.90
63313;DHT22;49442;45.640;13.812;2023-12-28T11:41:42;11.10;99.90
63313;DHT22;49442;45.640;13.812;2023-12-28T11:44:08;11.20;99.90
63313;DHT22;49442;45.640;13.812;2023-12-28T11:46:35;11.20;99.90
63313;DHT22;49442;45.640;13.812;2023-12-28T11:49:05;11.20;99.90
63313;DHT22;49442;45.640;13.812;2023-12-28T11:51:32;11.20;99.90
63313;DHT22;49442;45.640;13.812;2023-12-28T11:53:58;11.20;99.90
63313;DHT22;49442;45.640;13.812;2023-12-28T11:56:25;11.20;99.90
63313;DHT22;49442;45.640;13.812;2023-12-28T11:58:51;11.20;99.90
63313;DHT22;49442;45.640;13.812;2023-12-28T12:01:17;11.20;99.90
63313;DHT22;49442;45.640;13.812;2023-12-28T12:03:43;11.20;99.90
63313;DHT22;49442;45.640;13.812;2023-12-28T12:06:09;11.20;99.90
63313;DHT22;49442;45.640;13.812;2023-12-28T12:08:35;11.20;99.90
63313;DHT22;49442;45.640;13.812;2023-12-28T12:11:09;11.20;99.90
63313;DHT22;49442;45.640;13.812;2023-12-28T12:13:35;11.20;99.90
63313;DHT22;49442;45.640;13.812;2023-12-28T12:16:02;11.20;99.90
63313;DHT22;49442;45.640;13.812;2023-12-28T12:18:31;11.20;99.90
63313;DHT22;49442;45.640;13.812;2023-12-28T12:20:57;11.10;99.90
63313;DHT22;49442;45.640;13.812;2023-12-28T12:23:23;11.10;99.90
63313;DHT22;49442;45.640;13.812;2023-12-28T12:25:49;11.20;99.90
63313;DHT22;49442;45.640;13.812;2023-12-28T12:28:15;11.20;99.90
63313;DHT22;49442;45.640;13.812;2023-12-28T12:30:58;11.10;99.90
63313;DHT22;49442;45.640;13.812;2023-12-28T12:33:27;11.10;99.90
63313;DHT22;49442;45.640;13.812;2023-12-28T12:35:53;11.10;99.90
63313;DHT22;49442;45.640;13.812;2023-12-28T12:38:18;11.10;99.90
63313;DHT22;49442;45.640;13.812;2023-12-28T12:40:44;11.10;99.90
63313;DHT22;49442;45.640;13.812;2023-12-28T12:43:10;11.10;99.90
63313;DHT22;49442;45.640;13.812;2023-12-28T12:45:36;11.10;99.90
63313;DHT22;49442;45.640;13.812;2023-12-28T12:48:03;11.10;99.90
63313;DHT22;49442;45.640;13.812;2023-12-28T12:50:34;11.00;99.90
63313;DHT22;49442;45.640;13.812;2023-12-28T12:53:01;11.00;99.90
63313;DHT22;49442;45.640;13.812;2023-12-28T12:55:27;11.00;99.90
63313;DHT22;49442;45.640;13.812;2023-12-28T12:57:52;11.00;99.90
63313;DHT22;49442;45.640;13.812;2023-12-28T13:00:21;10.90;99.90
63313;DHT22;49442;45.640;13.812;2023-12-28T13:02:49;11.00;99.90
63313;DHT22;49442;45.640;13.812;2023-12-28T13:05:17;11.00;99.90
63313;DHT22;49442;45.640;13.812;2023-12-28T13:07:43;11.00;99.90
63313;DHT22;49442;45.640;13.812;2023-12-28T13:10:09;11.10;99.90
63313;DHT22;49442;45.640;13.812;2023-12-28T13:12:36;11.10;99.90
63313;DHT22;49442;45.640;13.812;2023-12-28T13:15:02;11.10;99.90
63313;DHT22;49442;45.640;13.812;2023-12-28T13:17:27;11.20;99.90
63313;DHT22;49442;45.640;13.812;2023-12-28T13:19:53;11.20;99.90
63313;DHT22;49442;45.640;13.812;2023-12-28T13:22:19;11.20;99.90
63313;DHT22;49442;45.640;13.812;2023-12-28T13:24:45;11.30;99.90
63313;DHT22;49442;45.640;13.812;2023-12-28T13:27:10;11.30;99.90
63313;DHT22;49442;45.640;13.812;2023-12-28T13:29:36;11.30;99.90
63313;DHT22;49442;45.640;13.812;2023-12-28T13:32:02;11.30;99.90
63313;DHT22;49442;45.640;13.812;2023-12-28T13:34:29;11.40;99.90
63313;DHT22;49442;45.640;13.812;2023-12-28T13:36:55;11.40;99.90
63313;DHT22;49442;45.640;13.812;2023-12-28T13:39:20;11.40;99.90
63313;DHT22;49442;45.640;13.812;2023-12-28T13:41:47;11.40;99.90
63313;DHT22;49442;45.640;13.812;2023-12-28T13:44:12;11.50;99.90
63313;DHT22;49442;45.640;13.812;2023-12-28T13:46:38;11.60;99.90
63313;DHT22;49442;45.640;13.812;2023-12-28T13:49:04;11.60;99.90
63313;DHT22;49442;45.640;13.812;2023-12-28T13:51:31;11.60;99.90
63313;DHT22;49442;45.640;13.812;2023-12-28T13:53:57;11.70;99.90
63313;DHT22;49442;45.640;13.812;2023-12-28T13:56:23;11.70;99.90
63313;DHT22;49442;45.640;13.812;2023-12-28T13:58:49;11.70;99.90
63313;DHT22;49442;45.640;13.812;2023-12-28T14:01:14;11.70;99.90
63313;DHT22;49442;45.640;13.812;2023-12-28T14:03:40;11.70;99.90
63313;DHT22;49442;45.640;13.812;2023-12-28T14:06:06;11.60;99.90
63313;DHT22;49442;45.640;13.812;2023-12-28T14:08:32;11.60;99.90
63313;DHT22;49442;45.640;13.812;2023-12-28T14:10:58;11.60;99.90
63313;DHT22;49442;45.640;13.812;2023-12-28T14:13:23;11.50;99.90
63313;DHT22;49442;45.640;13.812;2023-12-28T14:15:49;11.60;99.90
63313;DHT22;49442;45.640;13.812;2023-12-28T14:18:15;11.50;99.90
63313;DHT22;49442;45.640;13.812;2023-12-28T14:20:40;11.60;99.90
63313;DHT22;49442;45.640;13.812;2023-12-28T14:23:06;11.50;99.90
63313;DHT22;49442;45.640;13.812;2023-12-28T14:25:32;11.50;99.90
63313;DHT22;49442;45.640;13.812;2023-12-28T14:27:58;11.40;99.90
63313;DHT22;49442;45.640;13.812;2023-12-28T14:30:26;11.40;99.90
63313;DHT22;49442;45.640;13.812;2023-12-28T14:32:52;11.40;99.90
63313;DHT22;49442;45.640;13.812;2023-12-28T14:35:18;11.40;99.90
63313;DHT22;49442;45.640;13.812;2023-12-28T14:37:44;11.30;99.90
63313;DHT22;49442;45.640;13.812;2023-12-28T14:40:10;11.30;99.90
63313;DHT22;49442;45.640;13.812;2023-12-28T14:42:37;11.30;99.90
63313;DHT22;49442;45.640;13.812;2023-12-28T14:45:04;11.30;99.90
63313;DHT22;49442;45.640;13.812;2023-12-28T14:47:29;11.30;99.90
63313;DHT22;49442;45.640;13.812;2023-12-28T14:49:55;11.30;99.90
63313;DHT22;49442;45.640;13.812;2023-12-28T14:52:23;11.20;99.90
63313;DHT22;49442;45.640;13.812;2023-12-28T14:54:49;11.20;99.90
63313;DHT22;49442;45.640;13.812;2023-12-28T14:57:20;11.20;99.90
63313;DHT22;49442;45.640;13.812;2023-12-28T14:59:46;11.20;99.90
63313;DHT22;49442;45.640;13.812;2023-12-28T15:02:11;11.10;99.90
63313;DHT22;49442;45.640;13.812;2023-12-28T15:04:37;11.10;99.90
63313;DHT22;49442;45.640;13.812;2023-12-28T15:07:03;11.10;99.90
63313;DHT22;49442;45.640;13.812;2023-12-28T15:09:29;11.10;99.90
63313;DHT22;49442;45.640;13.812;2023-12-28T15:11:56;11.10;99.90
63313;DHT22;49442;45.640;13.812;2023-12-28T15:14:22;11.00;99.90
63313;DHT22;49442;45.640;13.812;2023-12-28T15:16:48;11.00;99.90
63313;DHT22;49442;45.640;13.812;2023-12-28T15:19:14;11.00;99.90
63313;DHT22;49442;45.640;13.812;2023-12-28T15:21:40;11.00;99.90
63313;DHT22;49442;45.640;13.812;2023-12-28T15:24:07;11.00;99.90
63313;DHT22;49442;45.640;13.812;2023-12-28T15:26:33;11.00;99.90
63313;DHT22;49442;45.640;13.812;2023-12-28T15:28:58;10.90;99.90
63313;DHT22;49442;45.640;13.812;2023-12-28T15:31:24;10.90;99.90
63313;DHT22;49442;45.640;13.812;2023-12-28T15:33:50;10.90;99.90
63313;DHT22;49442;45.640;13.812;2023-12-28T15:36:15;10.80;99.90
63313;DHT22;49442;45.640;13.812;2023-12-28T15:38:42;10.80;99.90
63313;DHT22;49442;45.640;13.812;2023-12-28T15:41:08;10.80;99.90